Time,TemperatureF,DewpointF,PressureIn,WindDirection,WindDirectionDegrees,WindSpeedMPH,WindSpeedGustMPH,Humidity,HourlyPrecipIn,Conditions,Clouds,dailyrainin,SolarRadiationWatts/m^2,SoftwareType,DateUTC
2013-01-13 00:00:00,25.7,21.5,29.94,NNW,327,5.0,5.0,84,0.00,,,0.02,0,Wunderground v.1.15,2013-01-13 06:00:00,
2013-01-13 00:05:00,25.6,21.4,29.94,NW,304,6.0,11.0,84,0.00,,,0.00,0,Wunderground v.1.15,2013-01-13 06:05:00,
2013-01-13 00:11:00,25.5,21.3,29.94,NW,306,7.0,8.0,84,0.00,,,0.00,0,Wunderground v.1.15,2013-01-13 06:11:00,
2013-01-13 00:16:00,25.4,21.2,29.95,NW,321,9.0,10.0,84,0.00,,,0.00,0,Wunderground v.1.15,2013-01-13 06:16:00,
2013-01-13 00:21:00,25.3,21.1,29.95,NW,321,9.0,9.0,84,0.00,,,0.00,0,Wunderground v.1.15,2013-01-13 06:21:00,
2013-01-13 00:26:00,25.3,21.1,29.95,WNW,294,9.0,9.0,84,0.00,,,0.00,0,Wunderground v.1.15,2013-01-13 06:26:00,
2013-01-13 00:32:00,25.1,21.2,29.95,NW,324,8.0,10.0,85,0.00,,,0.00,0,Wunderground v.1.15,2013-01-13 06:32:00,
2013-01-13 00:37:00,24.9,21.3,29.95,WNW,299,8.0,10.0,86,0.00,,,0.01,0,Wunderground v.1.15,2013-01-13 06:37:00,
2013-01-13 00:45:00,24.8,21.5,29.95,NNW,329,7.0,13.0,87,0.00,,,0.01,0,Wunderground v.1.15,2013-01-13 06:45:00,
2013-01-13 00:50:00,24.8,21.5,29.94,NNW,331,8.0,13.0,87,0.00,,,0.01,0,Wunderground v.1.15,2013-01-13 06:50:00,
2013-01-13 00:55:00,24.8,21.5,29.94,NW,325,8.0,15.0,87,0.00,,,0.01,0,Wunderground v.1.15,2013-01-13 06:55:00,
2013-01-13 01:00:00,24.7,21.4,29.94,NW,322,9.0,15.0,87,0.00,,,0.02,0,Wunderground v.1.15,2013-01-13 07:00:00,
2013-01-13 01:05:00,24.7,21.4,29.94,NNW,334,10.0,11.0,87,0.00,,,0.02,0,Wunderground v.1.15,2013-01-13 07:05:00,
2013-01-13 01:10:00,24.6,21.3,29.94,NNW,346,9.0,11.0,87,0.00,,,0.02,0,Wunderground v.1.15,2013-01-13 07:10:00,
2013-01-13 01:16:00,24.5,20.9,29.94,NNW,346,7.0,10.0,86,0.00,,,0.02,0,Wunderground v.1.15,2013-01-13 07:16:00,
2013-01-13 01:21:00,24.5,20.9,29.94,NW,323,6.0,8.0,86,0.00,,,0.02,0,Wunderground v.1.15,2013-01-13 07:21:00,
2013-01-13 01:26:00,24.5,20.9,29.94,NNW,327,7.0,8.0,86,0.00,,,0.02,0,Wunderground v.1.15,2013-01-13 07:26:00,
2013-01-13 01:32:00,24.4,20.8,29.95,NW,321,6.0,9.0,86,0.00,,,0.02,0,Wunderground v.1.15,2013-01-13 07:32:00,
2013-01-13 01:38:00,24.4,21.1,29.95,NNW,328,6.0,9.0,87,0.00,,,0.03,0,Wunderground v.1.15,2013-01-13 07:38:00,
2013-01-13 01:44:00,24.4,21.4,29.95,NW,319,5.0,5.0,88,0.00,,,0.03,0,Wunderground v.1.15,2013-01-13 07:44:00,
2013-01-13 01:49:00,24.3,21.3,29.96,WNW,303,5.0,5.0,88,0.00,,,0.03,0,Wunderground v.1.15,2013-01-13 07:49:00,
2013-01-13 01:54:00,24.2,20.9,29.96,WNW,298,6.0,8.0,87,0.04,,,0.04,0,Wunderground v.1.15,2013-01-13 07:54:00,
2013-01-13 01:59:00,24.1,20.8,29.96,NW,312,6.0,8.0,87,0.04,,,0.04,0,Wunderground v.1.15,2013-01-13 07:59:00,
2013-01-13 02:04:00,23.9,20.3,29.97,NW,323,6.0,9.0,86,0.04,,,0.04,0,Wunderground v.1.15,2013-01-13 08:04:00,
2013-01-13 02:10:00,23.7,20.1,29.97,NNW,329,6.0,8.0,86,0.00,,,0.04,0,Wunderground v.1.15,2013-01-13 08:10:00,
2013-01-13 02:16:00,23.8,20.2,29.95,NNE,15,7.0,8.0,86,0.00,,,0.04,0,Wunderground v.1.15,2013-01-13 08:16:00,
2013-01-13 02:24:00,23.8,20.2,29.95,NNE,33,5.0,6.0,86,0.00,,,0.04,0,Wunderground v.1.15,2013-01-13 08:24:00,
2013-01-13 02:29:00,23.7,20.1,29.95,NE,49,6.0,6.0,86,0.00,,,0.04,0,Wunderground v.1.15,2013-01-13 08:29:00,
2013-01-13 02:34:00,23.6,20.0,29.91,NNW,328,5.0,7.0,86,0.00,,,0.04,0,Wunderground v.1.15,2013-01-13 08:34:00,
2013-01-13 02:40:00,23.6,20.3,29.91,North,355,4.0,4.0,87,0.00,,,0.04,0,Wunderground v.1.15,2013-01-13 08:40:00,
2013-01-13 02:45:00,23.6,20.0,29.94,NNE,16,3.0,6.0,86,0.00,,,0.04,0,Wunderground v.1.15,2013-01-13 08:45:00,
2013-01-13 02:51:00,23.4,19.6,29.94,North,355,5.0,7.0,85,0.00,,,0.04,0,Wunderground v.1.15,2013-01-13 08:51:00,
2013-01-13 02:59:00,23.3,19.5,29.94,North,350,6.0,7.0,85,0.00,,,0.04,0,Wunderground v.1.15,2013-01-13 08:59:00,
2013-01-13 03:04:00,23.3,19.5,29.95,NW,309,5.0,8.0,85,0.00,,,0.04,0,Wunderground v.1.15,2013-01-13 09:04:00,
2013-01-13 03:10:00,23.2,19.4,29.95,NNW,332,7.0,7.0,85,0.00,,,0.04,0,Wunderground v.1.15,2013-01-13 09:10:00,
2013-01-13 03:15:00,23.2,19.4,29.98,WNW,298,7.0,9.0,85,0.00,,,0.04,0,Wunderground v.1.15,2013-01-13 09:15:00,
2013-01-13 03:20:00,23.2,19.4,29.98,West,279,7.0,7.0,85,0.00,,,0.04,0,Wunderground v.1.15,2013-01-13 09:20:00,
2013-01-13 03:26:00,23.1,19.3,29.98,WNW,298,7.0,9.0,85,0.00,,,0.04,0,Wunderground v.1.15,2013-01-13 09:26:00,
2013-01-13 03:32:00,23.0,18.9,29.98,NW,314,7.0,7.0,84,0.00,,,0.04,0,Wunderground v.1.15,2013-01-13 09:32:00,
2013-01-13 03:37:00,22.8,18.4,29.98,North,355,8.0,10.0,83,0.00,,,0.04,0,Wunderground v.1.15,2013-01-13 09:37:00,
2013-01-13 03:43:00,22.7,18.6,29.98,NNW,335,8.0,9.0,84,0.00,,,0.04,0,Wunderground v.1.15,2013-01-13 09:43:00,
2013-01-13 03:49:00,22.6,18.5,29.98,NNW,331,7.0,9.0,84,0.00,,,0.04,0,Wunderground v.1.15,2013-01-13 09:49:00,
2013-01-13 03:55:00,22.5,18.4,29.98,NNW,332,8.0,10.0,84,0.00,,,0.04,0,Wunderground v.1.15,2013-01-13 09:55:00,
2013-01-13 04:01:00,22.5,18.4,29.96,North,355,7.0,10.0,84,0.00,,,0.04,0,Wunderground v.1.15,2013-01-13 10:01:00,
2013-01-13 04:09:00,22.3,17.9,29.96,NNW,348,8.0,10.0,83,0.00,,,0.04,0,Wunderground v.1.15,2013-01-13 10:09:00,
2013-01-13 04:15:00,22.2,17.8,29.93,NNW,331,9.0,11.0,83,0.00,,,0.04,0,Wunderground v.1.15,2013-01-13 10:15:00,
2013-01-13 04:20:00,22.2,17.8,29.93,NNW,334,8.0,8.0,83,0.00,,,0.04,0,Wunderground v.1.15,2013-01-13 10:20:00,
2013-01-13 04:26:00,22.1,17.7,29.93,North,5,7.0,8.0,83,0.00,,,0.04,0,Wunderground v.1.15,2013-01-13 10:26:00,
2013-01-13 04:31:00,22.1,17.7,29.94,North,5,7.0,8.0,83,0.00,,,0.04,0,Wunderground v.1.15,2013-01-13 10:31:00,
2013-01-13 04:39:00,22.2,17.5,29.94,North,355,6.0,8.0,82,0.00,,,0.04,0,Wunderground v.1.15,2013-01-13 10:39:00,
2013-01-13 04:45:00,22.1,17.4,29.94,NW,319,6.0,6.0,82,0.00,,,0.04,0,Wunderground v.1.15,2013-01-13 10:45:00,
2013-01-13 04:50:00,22.0,17.3,29.95,NW,313,7.0,10.0,82,0.00,,,0.04,0,Wunderground v.1.15,2013-01-13 10:50:00,
2013-01-13 04:56:00,21.9,17.2,29.95,NW,323,7.0,10.0,82,0.00,,,0.04,0,Wunderground v.1.15,2013-01-13 10:56:00,
2013-01-13 05:01:00,21.8,16.9,29.96,NW,304,7.0,11.0,81,0.00,,,0.04,0,Wunderground v.1.15,2013-01-13 11:01:00,
2013-01-13 05:06:00,21.8,16.9,29.96,NNW,331,7.0,11.0,81,0.00,,,0.04,0,Wunderground v.1.15,2013-01-13 11:06:00,
2013-01-13 05:11:00,21.8,16.9,29.96,NW,308,6.0,6.0,81,0.00,,,0.04,0,Wunderground v.1.15,2013-01-13 11:11:00,
2013-01-13 05:16:00,21.8,16.6,30.00,NW,321,6.0,6.0,80,0.00,,,0.04,0,Wunderground v.1.15,2013-01-13 11:16:00,
2013-01-13 05:22:00,21.8,16.6,30.00,WNW,289,6.0,6.0,80,0.00,,,0.04,0,Wunderground v.1.15,2013-01-13 11:22:00,
2013-01-13 05:29:00,21.7,16.2,30.00,NW,325,6.0,7.0,79,0.00,,,0.04,0,Wunderground v.1.15,2013-01-13 11:29:00,
2013-01-13 05:35:00,21.9,16.7,30.01,WNW,288,5.0,6.0,80,0.00,,,0.04,0,Wunderground v.1.15,2013-01-13 11:35:00,
2013-01-13 05:40:00,21.8,16.3,30.01,WNW,296,5.0,6.0,79,0.00,,,0.04,0,Wunderground v.1.15,2013-01-13 11:40:00,
2013-01-13 05:45:00,21.8,16.3,30.02,WNW,284,5.0,7.0,79,0.00,,,0.04,0,Wunderground v.1.15,2013-01-13 11:45:00,
2013-01-13 05:51:00,21.8,16.6,30.02,West,281,5.0,5.0,80,0.00,,,0.04,0,Wunderground v.1.15,2013-01-13 11:51:00,
2013-01-13 05:57:00,21.7,16.2,30.02,West,279,6.0,7.0,79,0.00,,,0.04,0,Wunderground v.1.15,2013-01-13 11:57:00,
2013-01-13 06:04:00,21.8,16.0,30.03,WNW,292,6.0,9.0,78,0.00,,,0.04,0,Wunderground v.1.15,2013-01-13 12:04:00,
2013-01-13 06:10:00,21.7,16.2,30.03,WNW,301,6.0,9.0,79,0.00,,,0.04,0,Wunderground v.1.15,2013-01-13 12:10:00,
2013-01-13 06:15:00,21.7,16.2,30.01,WNW,289,6.0,9.0,79,0.00,,,0.04,0,Wunderground v.1.15,2013-01-13 12:15:00,
2013-01-13 06:21:00,21.7,16.2,30.01,WNW,301,5.0,7.0,79,0.00,,,0.04,0,Wunderground v.1.15,2013-01-13 12:21:00,
2013-01-13 06:27:00,21.5,16.0,30.01,NW,304,5.0,7.0,79,0.00,,,0.04,0,Wunderground v.1.15,2013-01-13 12:27:00,
2013-01-13 06:34:00,21.5,16.0,30.01,NW,320,5.0,7.0,79,0.00,,,0.04,0,Wunderground v.1.15,2013-01-13 12:34:00,
2013-01-13 06:39:00,21.5,16.0,30.01,NW,317,6.0,8.0,79,0.00,,,0.04,0,Wunderground v.1.15,2013-01-13 12:39:00,
2013-01-13 06:44:00,21.5,16.0,30.01,WNW,302,6.0,7.0,79,0.00,,,0.04,0,Wunderground v.1.15,2013-01-13 12:44:00,
2013-01-13 06:50:00,21.4,15.9,30.01,NNW,327,6.0,6.0,79,0.00,,,0.04,0,Wunderground v.1.15,2013-01-13 12:50:00,
2013-01-13 06:56:00,21.2,15.4,30.01,NW,311,6.0,9.0,78,0.00,,,0.04,0,Wunderground v.1.15,2013-01-13 12:56:00,
2013-01-13 07:01:00,20.9,15.1,30.02,NNW,344,6.0,7.0,78,0.00,,,0.04,0,Wunderground v.1.15,2013-01-13 13:01:00,
2013-01-13 07:06:00,20.8,15.0,30.02,WNW,298,6.0,7.0,78,0.00,,,0.04,0,Wunderground v.1.15,2013-01-13 13:06:00,
2013-01-13 07:12:00,20.9,15.1,30.02,WNW,287,6.0,9.0,78,0.00,,,0.04,0,Wunderground v.1.15,2013-01-13 13:12:00,
2013-01-13 07:19:00,20.8,15.0,30.01,WNW,296,7.0,9.0,78,0.00,,,0.04,0,Wunderground v.1.15,2013-01-13 13:19:00,
2013-01-13 07:25:00,20.7,14.6,30.01,NW,323,6.0,11.0,77,0.00,,,0.04,0,Wunderground v.1.15,2013-01-13 13:25:00,
2013-01-13 07:30:00,20.7,14.6,30.03,WNW,302,6.0,6.0,77,0.00,,,0.04,0,Wunderground v.1.15,2013-01-13 13:30:00,
2013-01-13 07:36:00,20.6,14.2,30.03,WNW,290,6.0,9.0,76,0.00,,,0.04,0,Wunderground v.1.15,2013-01-13 13:36:00,
2013-01-13 07:41:00,20.6,14.2,30.03,WNW,302,7.0,7.0,76,0.00,,,0.04,5,Wunderground v.1.15,2013-01-13 13:41:00,
2013-01-13 07:47:00,20.6,14.2,30.03,WNW,288,6.0,7.0,76,0.00,,,0.04,9,Wunderground v.1.15,2013-01-13 13:47:00,
2013-01-13 07:54:00,20.7,14.6,30.03,West,275,6.0,6.0,77,0.00,,,0.04,11,Wunderground v.1.15,2013-01-13 13:54:00,
2013-01-13 08:00:00,20.6,14.2,30.05,WNW,299,7.0,7.0,76,0.00,,,0.04,21,Wunderground v.1.15,2013-01-13 14:00:00,
2013-01-13 08:05:00,20.6,14.2,30.05,NW,306,6.0,9.0,76,0.00,,,0.04,26,Wunderground v.1.15,2013-01-13 14:05:00,
2013-01-13 08:11:00,20.5,14.1,30.05,NW,311,6.0,8.0,76,0.00,,,0.04,16,Wunderground v.1.15,2013-01-13 14:11:00,
2013-01-13 08:16:00,20.6,14.2,30.07,West,279,6.0,10.0,76,0.00,,,0.04,21,Wunderground v.1.15,2013-01-13 14:16:00,
2013-01-13 08:21:00,20.6,14.2,30.07,West,271,7.0,7.0,76,0.00,,,0.04,32,Wunderground v.1.15,2013-01-13 14:21:00,
2013-01-13 08:27:00,20.5,14.1,30.07,West,277,6.0,7.0,76,0.00,,,0.04,26,Wunderground v.1.15,2013-01-13 14:27:00,
2013-01-13 08:34:00,20.4,14.0,30.05,NW,319,5.0,6.0,76,0.00,,,0.04,39,Wunderground v.1.15,2013-01-13 14:34:00,
2013-01-13 08:39:00,20.4,14.0,30.05,WNW,298,4.0,6.0,76,0.00,,,0.04,32,Wunderground v.1.15,2013-01-13 14:39:00,
2013-01-13 08:45:00,20.6,14.5,30.08,WNW,287,5.0,7.0,77,0.00,,,0.04,33,Wunderground v.1.15,2013-01-13 14:45:00,
2013-01-13 08:50:00,20.5,14.1,30.08,NW,310,6.0,8.0,76,0.00,,,0.04,56,Wunderground v.1.15,2013-01-13 14:50:00,
2013-01-13 08:56:00,20.4,14.0,30.08,NW,317,7.0,8.0,76,0.00,,,0.04,49,Wunderground v.1.15,2013-01-13 14:56:00,
2013-01-13 09:01:00,20.4,14.0,30.07,West,276,8.0,8.0,76,0.00,,,0.04,53,Wunderground v.1.15,2013-01-13 15:01:00,
2013-01-13 09:09:00,20.4,14.0,30.07,NW,309,7.0,8.0,76,0.00,,,0.04,44,Wunderground v.1.15,2013-01-13 15:09:00,
2013-01-13 09:15:00,20.3,13.9,30.07,WNW,286,8.0,13.0,76,0.00,,,0.04,54,Wunderground v.1.15,2013-01-13 15:15:00,
2013-01-13 09:20:00,20.2,13.8,30.07,West,278,10.0,10.0,76,0.00,,,0.04,58,Wunderground v.1.15,2013-01-13 15:20:00,
2013-01-13 09:25:00,20.3,14.2,30.07,NW,307,10.0,10.0,77,0.00,,,0.04,79,Wunderground v.1.15,2013-01-13 15:25:00,
2013-01-13 09:30:00,20.3,14.2,30.07,WNW,290,10.0,10.0,77,0.00,,,0.04,95,Wunderground v.1.15,2013-01-13 15:30:00,
2013-01-13 09:36:00,20.2,14.1,30.07,NNW,338,10.0,10.0,77,0.00,,,0.04,107,Wunderground v.1.15,2013-01-13 15:36:00,
2013-01-13 09:41:00,19.9,13.6,30.07,NW,321,10.0,12.0,76,0.00,,,0.04,130,Wunderground v.1.15,2013-01-13 15:41:00,
2013-01-13 09:46:00,19.6,13.3,30.06,NW,324,12.0,14.0,76,0.00,,,0.04,156,Wunderground v.1.15,2013-01-13 15:46:00,
2013-01-13 09:52:00,19.5,13.8,30.06,NW,325,12.0,12.0,78,0.00,,,0.04,132,Wunderground v.1.15,2013-01-13 15:52:00,
2013-01-13 09:59:00,19.5,13.5,30.06,NW,315,9.0,12.0,77,0.00,,,0.04,160,Wunderground v.1.15,2013-01-13 15:59:00,
2013-01-13 10:05:00,19.3,13.0,30.05,WNW,301,10.0,12.0,76,0.00,,,0.04,251,Wunderground v.1.15,2013-01-13 16:05:00,
2013-01-13 10:10:00,19.2,12.9,30.05,WNW,303,11.0,11.0,76,0.00,,,0.04,236,Wunderground v.1.15,2013-01-13 16:10:00,
2013-01-13 10:16:00,19.1,12.8,30.05,NW,313,11.0,14.0,76,0.00,,,0.04,209,Wunderground v.1.15,2013-01-13 16:16:00,
2013-01-13 10:22:00,19.0,12.4,30.05,WNW,289,11.0,11.0,75,0.00,,,0.04,169,Wunderground v.1.15,2013-01-13 16:22:00,
2013-01-13 10:29:00,19.0,12.7,30.05,WNW,290,9.0,11.0,76,0.00,,,0.04,155,Wunderground v.1.15,2013-01-13 16:29:00,
2013-01-13 10:34:00,18.7,12.1,30.05,West,271,9.0,12.0,75,0.00,,,0.04,167,Wunderground v.1.15,2013-01-13 16:34:00,
2013-01-13 10:40:00,18.6,12.3,30.05,WNW,299,9.0,9.0,76,0.00,,,0.04,141,Wunderground v.1.15,2013-01-13 16:40:00,
2013-01-13 10:45:00,18.6,12.3,30.06,NW,308,7.0,10.0,76,0.00,,,0.04,134,Wunderground v.1.15,2013-01-13 16:45:00,
2013-01-13 10:51:00,18.4,11.8,30.06,NW,322,7.0,10.0,75,0.00,,,0.04,121,Wunderground v.1.15,2013-01-13 16:51:00,
2013-01-13 10:56:00,18.3,12.0,30.06,NNW,335,6.0,10.0,76,0.00,,,0.04,104,Wunderground v.1.15,2013-01-13 16:56:00,
2013-01-13 11:01:00,18.2,11.9,30.07,NW,325,7.0,9.0,76,0.00,,,0.04,65,Wunderground v.1.15,2013-01-13 17:01:00,
2013-01-13 11:06:00,18.1,11.8,30.07,NW,310,8.0,10.0,76,0.00,,,0.04,98,Wunderground v.1.15,2013-01-13 17:06:00,
2013-01-13 11:14:00,18.3,12.0,30.07,NW,319,7.0,8.0,76,0.00,,,0.04,90,Wunderground v.1.15,2013-01-13 17:14:00,
2013-01-13 11:20:00,18.1,11.5,30.06,WNW,299,7.0,7.0,75,0.00,,,0.04,153,Wunderground v.1.15,2013-01-13 17:20:00,
2013-01-13 11:25:00,18.3,11.7,30.06,WNW,298,6.0,9.0,75,0.00,,,0.04,135,Wunderground v.1.15,2013-01-13 17:25:00,
2013-01-13 11:31:00,18.3,11.7,30.05,WNW,296,7.0,11.0,75,0.00,,,0.04,167,Wunderground v.1.15,2013-01-13 17:31:00,
2013-01-13 11:39:00,18.1,11.5,30.05,WNW,294,8.0,11.0,75,0.00,,,0.04,171,Wunderground v.1.15,2013-01-13 17:39:00,
2013-01-13 11:45:00,18.2,11.9,30.05,NW,311,8.0,8.0,76,0.00,,,0.04,171,Wunderground v.1.15,2013-01-13 17:45:00,
2013-01-13 11:50:00,18.3,12.0,30.04,WNW,286,7.0,7.0,76,0.00,,,0.04,167,Wunderground v.1.15,2013-01-13 17:50:00,
2013-01-13 11:55:00,18.3,12.0,30.04,WNW,295,8.0,11.0,76,0.00,,,0.04,162,Wunderground v.1.15,2013-01-13 17:55:00,
2013-01-13 12:01:00,18.3,12.0,30.04,WNW,292,9.0,9.0,76,0.00,,,0.04,155,Wunderground v.1.15,2013-01-13 18:01:00,
2013-01-13 12:06:00,18.3,12.0,30.04,West,274,9.0,9.0,76,0.00,,,0.04,163,Wunderground v.1.15,2013-01-13 18:06:00,
2013-01-13 12:11:00,18.3,12.0,30.04,NW,313,9.0,9.0,76,0.00,,,0.04,149,Wunderground v.1.15,2013-01-13 18:11:00,
2013-01-13 12:17:00,18.4,12.4,30.04,WNW,290,8.0,9.0,77,0.00,,,0.04,141,Wunderground v.1.15,2013-01-13 18:17:00,
2013-01-13 12:24:00,18.6,12.3,30.04,NW,307,8.0,9.0,76,0.00,,,0.04,151,Wunderground v.1.15,2013-01-13 18:24:00,
2013-01-13 12:30:00,18.5,11.9,30.05,WNW,302,9.0,9.0,75,0.00,,,0.04,174,Wunderground v.1.15,2013-01-13 18:30:00,
2013-01-13 12:36:00,18.4,11.8,30.05,West,276,11.0,13.0,75,0.00,,,0.04,141,Wunderground v.1.15,2013-01-13 18:36:00,
2013-01-13 12:41:00,18.4,12.1,30.05,NW,313,10.0,10.0,76,0.00,,,0.04,114,Wunderground v.1.15,2013-01-13 18:41:00,
2013-01-13 12:49:00,18.4,11.8,30.05,West,263,9.0,10.0,75,0.00,,,0.04,155,Wunderground v.1.15,2013-01-13 18:49:00,
2013-01-13 12:55:00,18.5,12.2,30.05,WNW,298,9.0,11.0,76,0.00,,,0.04,149,Wunderground v.1.15,2013-01-13 18:55:00,
2013-01-13 13:01:00,18.4,11.5,30.05,West,277,10.0,12.0,74,0.00,,,0.04,193,Wunderground v.1.15,2013-01-13 19:01:00,
2013-01-13 13:06:00,18.1,11.2,30.05,West,281,9.0,12.0,74,0.00,,,0.04,211,Wunderground v.1.15,2013-01-13 19:06:00,
2013-01-13 13:14:00,18.3,11.7,30.05,West,261,9.0,9.0,75,0.00,,,0.04,176,Wunderground v.1.15,2013-01-13 19:14:00,
2013-01-13 13:19:00,18.2,11.3,30.05,West,261,9.0,9.0,74,0.00,,,0.04,181,Wunderground v.1.15,2013-01-13 19:19:00,
2013-01-13 13:24:00,18.3,11.7,30.05,WNW,294,9.0,10.0,75,0.00,,,0.04,272,Wunderground v.1.15,2013-01-13 19:24:00,
2013-01-13 13:29:00,18.4,11.5,30.05,WNW,284,8.0,10.0,74,0.00,,,0.04,172,Wunderground v.1.15,2013-01-13 19:29:00,
2013-01-13 13:35:00,18.6,12.0,30.06,WNW,291,8.0,12.0,75,0.00,,,0.04,167,Wunderground v.1.15,2013-01-13 19:35:00,
2013-01-13 13:41:00,18.5,11.6,30.06,West,273,8.0,10.0,74,0.00,,,0.04,139,Wunderground v.1.15,2013-01-13 19:41:00,
2013-01-13 13:46:00,18.5,11.9,30.06,WNW,299,8.0,10.0,75,0.00,,,0.04,285,Wunderground v.1.15,2013-01-13 19:46:00,
2013-01-13 13:52:00,18.4,11.5,30.06,West,274,8.0,10.0,74,0.00,,,0.04,123,Wunderground v.1.15,2013-01-13 19:52:00,
2013-01-13 13:59:00,18.3,11.4,30.06,West,265,9.0,11.0,74,0.00,,,0.04,132,Wunderground v.1.15,2013-01-13 19:59:00,
2013-01-13 14:05:00,18.5,11.6,30.06,West,271,6.0,10.0,74,0.00,,,0.04,121,Wunderground v.1.15,2013-01-13 20:05:00,
2013-01-13 14:11:00,18.7,12.1,30.06,West,275,5.0,5.0,75,0.00,,,0.04,178,Wunderground v.1.15,2013-01-13 20:11:00,
2013-01-13 14:16:00,19.0,12.1,30.06,WNW,289,5.0,8.0,74,0.00,,,0.04,151,Wunderground v.1.15,2013-01-13 20:16:00,
2013-01-13 14:24:00,19.1,11.9,30.06,WSW,249,5.0,7.0,73,0.00,,,0.04,169,Wunderground v.1.15,2013-01-13 20:24:00,
2013-01-13 14:30:00,19.2,12.3,30.07,West,262,6.0,8.0,74,0.00,,,0.04,153,Wunderground v.1.15,2013-01-13 20:30:00,
2013-01-13 14:35:00,19.2,12.0,30.07,NW,309,7.0,10.0,73,0.00,,,0.04,220,Wunderground v.1.15,2013-01-13 20:35:00,
2013-01-13 14:41:00,19.3,12.1,30.07,West,277,9.0,9.0,73,0.00,,,0.04,98,Wunderground v.1.15,2013-01-13 20:41:00,
2013-01-13 14:49:00,19.2,12.0,30.06,WNW,296,8.0,11.0,73,0.00,,,0.04,304,Wunderground v.1.15,2013-01-13 20:49:00,
2013-01-13 14:55:00,19.2,12.3,30.06,NW,320,8.0,9.0,74,0.00,,,0.04,104,Wunderground v.1.15,2013-01-13 20:55:00,
2013-01-13 15:01:00,19.2,12.3,30.06,WNW,283,8.0,10.0,74,0.00,,,0.04,100,Wunderground v.1.15,2013-01-13 21:01:00,
2013-01-13 15:06:00,19.1,12.2,30.06,WNW,290,8.0,10.0,74,0.00,,,0.04,65,Wunderground v.1.15,2013-01-13 21:06:00,
2013-01-13 15:14:00,19.1,11.9,30.06,NW,308,7.0,10.0,73,0.00,,,0.04,113,Wunderground v.1.15,2013-01-13 21:14:00,
2013-01-13 15:20:00,19.1,12.2,30.06,WNW,296,7.0,8.0,74,0.00,,,0.04,62,Wunderground v.1.15,2013-01-13 21:20:00,
2013-01-13 15:26:00,19.1,12.2,30.06,NW,310,7.0,11.0,74,0.00,,,0.04,42,Wunderground v.1.15,2013-01-13 21:26:00,
2013-01-13 15:35:00,19.0,12.1,30.07,WNW,290,8.0,9.0,74,0.00,,,0.04,56,Wunderground v.1.15,2013-01-13 21:35:00,
2013-01-13 15:40:00,19.0,12.4,30.07,WNW,287,7.0,7.0,75,0.00,,,0.04,51,Wunderground v.1.15,2013-01-13 21:40:00,
2013-01-13 15:46:00,19.1,11.9,30.08,WSW,243,7.0,13.0,73,0.00,,,0.04,76,Wunderground v.1.15,2013-01-13 21:46:00,
2013-01-13 15:52:00,19.0,11.5,30.08,WSW,254,9.0,11.0,72,0.00,,,0.04,40,Wunderground v.1.15,2013-01-13 21:52:00,
2013-01-13 15:59:00,18.9,11.0,30.08,West,261,9.0,11.0,71,0.00,,,0.04,25,Wunderground v.1.15,2013-01-13 21:59:00,
2013-01-13 16:05:00,19.0,11.8,30.08,WSW,257,8.0,10.0,73,0.00,,,0.04,21,Wunderground v.1.15,2013-01-13 22:05:00,
2013-01-13 16:10:00,18.9,11.0,30.08,WSW,250,10.0,10.0,71,0.00,,,0.04,14,Wunderground v.1.15,2013-01-13 22:10:00,
2013-01-13 16:15:00,18.9,11.4,30.08,WSW,247,10.0,11.0,72,0.00,,,0.04,12,Wunderground v.1.15,2013-01-13 22:15:00,
2013-01-13 16:21:00,19.0,11.5,30.08,West,276,9.0,9.0,72,0.00,,,0.04,7,Wunderground v.1.15,2013-01-13 22:21:00,
2013-01-13 16:27:00,19.1,11.6,30.08,West,260,8.0,10.0,72,0.00,,,0.04,7,Wunderground v.1.15,2013-01-13 22:27:00,
2013-01-13 16:34:00,19.0,11.5,30.10,WSW,251,9.0,10.0,72,0.00,,,0.04,11,Wunderground v.1.15,2013-01-13 22:34:00,
2013-01-13 16:40:00,18.9,11.4,30.10,WSW,240,10.0,12.0,72,0.00,,,0.04,5,Wunderground v.1.15,2013-01-13 22:40:00,
2013-01-13 16:46:00,18.8,11.3,30.11,WSW,249,11.0,14.0,72,0.00,,,0.04,0,Wunderground v.1.15,2013-01-13 22:46:00,
2013-01-13 16:51:00,18.8,10.6,30.11,WSW,248,11.0,15.0,70,0.00,,,0.04,0,Wunderground v.1.15,2013-01-13 22:51:00,
2013-01-13 16:59:00,18.8,10.6,30.11,West,267,12.0,15.0,70,0.00,,,0.04,0,Wunderground v.1.15,2013-01-13 22:59:00,
2013-01-13 17:05:00,18.8,10.9,30.11,WSW,238,10.0,11.0,71,0.00,,,0.04,0,Wunderground v.1.15,2013-01-13 23:05:00,
2013-01-13 17:10:00,18.9,11.0,30.11,West,269,9.0,9.0,71,0.00,,,0.04,0,Wunderground v.1.15,2013-01-13 23:10:00,
2013-01-13 17:16:00,18.9,10.7,30.12,WSW,252,9.0,11.0,70,0.00,,,0.04,0,Wunderground v.1.15,2013-01-13 23:16:00,
2013-01-13 17:24:00,18.5,10.3,30.12,WSW,249,12.0,12.0,70,0.00,,,0.04,0,Wunderground v.1.15,2013-01-13 23:24:00,
2013-01-13 17:30:00,18.5,10.7,30.12,WSW,251,10.0,10.0,71,0.00,,,0.04,0,Wunderground v.1.15,2013-01-13 23:30:00,
2013-01-13 17:35:00,18.5,11.0,30.12,West,264,8.0,12.0,72,0.00,,,0.04,0,Wunderground v.1.15,2013-01-13 23:35:00,
2013-01-13 17:41:00,18.4,10.6,30.12,WSW,255,8.0,10.0,71,0.00,,,0.04,0,Wunderground v.1.15,2013-01-13 23:41:00,
2013-01-13 17:46:00,18.2,10.4,30.13,WSW,238,10.0,14.0,71,0.00,,,0.04,0,Wunderground v.1.15,2013-01-13 23:46:00,
2013-01-13 17:55:00,17.9,10.4,30.13,WSW,253,13.0,14.0,72,0.00,,,0.04,0,Wunderground v.1.15,2013-01-13 23:55:00,
2013-01-13 18:00:00,17.9,10.7,30.14,WSW,250,11.0,11.0,73,0.00,,,0.04,0,Wunderground v.1.15,2013-01-14 00:00:00,
2013-01-13 18:05:00,17.8,10.3,30.14,WSW,244,9.0,14.0,72,0.00,,,0.04,0,Wunderground v.1.15,2013-01-14 00:05:00,
2013-01-13 18:10:00,17.9,10.7,30.14,West,261,10.0,11.0,73,0.00,,,0.04,0,Wunderground v.1.15,2013-01-14 00:10:00,
2013-01-13 18:16:00,17.7,10.5,30.14,WSW,240,11.0,13.0,73,0.00,,,0.04,0,Wunderground v.1.15,2013-01-14 00:16:00,
2013-01-13 18:22:00,17.6,10.4,30.14,WSW,252,11.0,13.0,73,0.00,,,0.04,0,Wunderground v.1.15,2013-01-14 00:22:00,
2013-01-13 18:30:00,17.5,10.0,30.14,West,264,12.0,12.0,72,0.00,,,0.04,0,Wunderground v.1.15,2013-01-14 00:30:00,
2013-01-13 18:35:00,17.5,10.3,30.16,SW,234,11.0,13.0,73,0.00,,,0.04,0,Wunderground v.1.15,2013-01-14 00:35:00,
2013-01-13 18:41:00,17.5,10.3,30.16,West,263,12.0,12.0,73,0.00,,,0.04,0,Wunderground v.1.15,2013-01-14 00:41:00,
2013-01-13 18:50:00,17.3,10.1,30.16,WSW,240,11.0,11.0,73,0.00,,,0.04,0,Wunderground v.1.15,2013-01-14 00:50:00,
2013-01-13 18:55:00,17.3,10.1,30.16,West,272,11.0,13.0,73,0.00,,,0.04,0,Wunderground v.1.15,2013-01-14 00:55:00,
2013-01-13 19:00:00,17.3,10.1,30.16,WSW,246,11.0,14.0,73,0.00,,,0.04,0,Wunderground v.1.15,2013-01-14 01:00:00,
2013-01-13 19:06:00,17.2,10.0,30.16,WSW,251,11.0,14.0,73,0.00,,,0.04,0,Wunderground v.1.15,2013-01-14 01:06:00,
2013-01-13 19:11:00,17.2,10.0,30.16,WSW,249,10.0,10.0,73,0.00,,,0.04,0,Wunderground v.1.15,2013-01-14 01:11:00,
2013-01-13 19:19:00,17.0,9.2,30.17,WSW,254,12.0,15.0,71,0.00,,,0.04,0,Wunderground v.1.15,2013-01-14 01:19:00,
2013-01-13 19:25:00,16.7,8.6,30.17,WSW,243,14.0,17.0,70,0.00,,,0.04,0,Wunderground v.1.15,2013-01-14 01:25:00,
2013-01-13 19:30:00,16.6,8.2,30.17,West,259,14.0,15.0,69,0.00,,,0.04,0,Wunderground v.1.15,2013-01-14 01:30:00,
2013-01-13 19:35:00,16.6,8.5,30.17,WSW,250,14.0,15.0,70,0.00,,,0.04,0,Wunderground v.1.15,2013-01-14 01:35:00,
2013-01-13 19:41:00,16.5,8.1,30.17,WSW,256,14.0,14.0,69,0.00,,,0.04,0,Wunderground v.1.15,2013-01-14 01:41:00,
2013-01-13 19:47:00,16.4,8.0,30.18,West,263,14.0,15.0,69,0.00,,,0.04,0,Wunderground v.1.15,2013-01-14 01:47:00,
2013-01-13 19:54:00,16.3,7.9,30.18,West,271,14.0,14.0,69,0.00,,,0.04,0,Wunderground v.1.15,2013-01-14 01:54:00,
2013-01-13 20:00:00,16.3,7.9,30.18,WSW,247,14.0,14.0,69,0.00,,,0.04,0,Wunderground v.1.15,2013-01-14 02:00:00,
2013-01-13 20:05:00,16.2,7.8,30.18,West,271,13.0,15.0,69,0.00,,,0.04,0,Wunderground v.1.15,2013-01-14 02:05:00,
2013-01-13 20:10:00,16.1,7.7,30.18,West,271,13.0,13.0,69,0.00,,,0.04,0,Wunderground v.1.15,2013-01-14 02:10:00,
2013-01-13 20:15:00,16.1,7.7,30.19,West,261,12.0,13.0,69,0.00,,,0.04,0,Wunderground v.1.15,2013-01-14 02:15:00,
2013-01-13 20:20:00,16.1,7.7,30.19,West,277,10.0,14.0,69,0.00,,,0.04,0,Wunderground v.1.15,2013-01-14 02:20:00,
2013-01-13 20:26:00,16.0,7.6,30.19,WSW,253,10.0,14.0,69,0.00,,,0.04,0,Wunderground v.1.15,2013-01-14 02:26:00,
2013-01-13 20:31:00,16.0,8.3,30.19,WSW,250,10.0,10.0,71,0.00,,,0.04,0,Wunderground v.1.15,2013-01-14 02:31:00,
2013-01-13 20:40:00,15.8,7.7,30.19,WSW,253,10.0,15.0,70,0.00,,,0.04,0,Wunderground v.1.15,2013-01-14 02:40:00,
2013-01-13 20:45:00,15.7,8.0,30.19,WSW,241,12.0,15.0,71,0.00,,,0.04,0,Wunderground v.1.15,2013-01-14 02:45:00,
2013-01-13 20:51:00,15.6,7.6,30.19,West,280,11.0,12.0,70,0.00,,,0.04,0,Wunderground v.1.15,2013-01-14 02:51:00,
2013-01-13 20:56:00,15.3,6.9,30.19,WSW,254,13.0,17.0,69,0.00,,,0.04,0,Wunderground v.1.15,2013-01-14 02:56:00,
2013-01-13 21:01:00,15.1,6.8,30.21,West,260,14.0,19.0,69,0.00,,,0.04,0,Wunderground v.1.15,2013-01-14 03:01:00,
2013-01-13 21:06:00,15.1,7.4,30.21,West,269,14.0,19.0,71,0.00,,,0.04,0,Wunderground v.1.15,2013-01-14 03:06:00,
2013-01-13 21:15:00,14.8,7.1,30.21,West,264,13.0,13.0,71,0.00,,,0.04,0,Wunderground v.1.15,2013-01-14 03:15:00,
2013-01-13 21:20:00,14.5,6.5,30.21,West,261,13.0,13.0,70,0.00,,,0.04,0,Wunderground v.1.15,2013-01-14 03:20:00,
2013-01-13 21:25:00,14.4,6.7,30.21,SW,236,13.0,13.0,71,0.00,,,0.04,0,Wunderground v.1.15,2013-01-14 03:25:00,
2013-01-13 21:31:00,14.4,6.7,30.22,West,260,13.0,18.0,71,0.00,,,0.04,0,Wunderground v.1.15,2013-01-14 03:31:00,
2013-01-13 21:36:00,14.2,6.5,30.22,WSW,257,13.0,18.0,71,0.00,,,0.04,0,Wunderground v.1.15,2013-01-14 03:36:00,
2013-01-13 21:41:00,14.4,7.0,30.22,WSW,257,11.0,12.0,72,0.00,,,0.04,0,Wunderground v.1.15,2013-01-14 03:41:00,
2013-01-13 21:46:00,14.2,6.5,30.23,WNW,284,11.0,18.0,71,0.00,,,0.04,0,Wunderground v.1.15,2013-01-14 03:46:00,
2013-01-13 21:54:00,14.0,6.0,30.23,WNW,292,14.0,14.0,70,0.00,,,0.04,0,Wunderground v.1.15,2013-01-14 03:54:00,
2013-01-13 22:00:00,13.9,6.2,30.23,West,274,12.0,12.0,71,0.00,,,0.04,0,Wunderground v.1.15,2013-01-14 04:00:00,
2013-01-13 22:05:00,13.9,5.9,30.23,West,281,12.0,15.0,70,0.00,,,0.04,0,Wunderground v.1.15,2013-01-14 04:05:00,
2013-01-13 22:10:00,13.8,5.8,30.23,West,259,13.0,13.0,70,0.00,,,0.04,0,Wunderground v.1.15,2013-01-14 04:10:00,
2013-01-13 22:15:00,13.8,6.1,30.23,West,271,12.0,13.0,71,0.00,,,0.04,0,Wunderground v.1.15,2013-01-14 04:15:00,
2013-01-13 22:21:00,13.9,6.2,30.23,WNW,286,10.0,11.0,71,0.00,,,0.04,0,Wunderground v.1.15,2013-01-14 04:21:00,
2013-01-13 22:26:00,14.0,6.6,30.23,WNW,297,9.0,11.0,72,0.00,,,0.04,0,Wunderground v.1.15,2013-01-14 04:26:00,
2013-01-13 22:31:00,14.0,6.3,30.24,West,278,9.0,12.0,71,0.00,,,0.04,0,Wunderground v.1.15,2013-01-14 04:31:00,
2013-01-13 22:40:00,14.0,6.3,30.24,West,281,12.0,12.0,71,0.00,,,0.04,0,Wunderground v.1.15,2013-01-14 04:40:00,
2013-01-13 22:45:00,14.0,6.0,30.24,WNW,296,12.0,14.0,70,0.00,,,0.04,0,Wunderground v.1.15,2013-01-14 04:45:00,
2013-01-13 22:50:00,14.0,6.3,30.24,West,271,13.0,13.0,71,0.00,,,0.04,0,Wunderground v.1.15,2013-01-14 04:50:00,
2013-01-13 22:55:00,14.2,6.8,30.24,West,264,11.0,13.0,72,0.00,,,0.04,0,Wunderground v.1.15,2013-01-14 04:55:00,
2013-01-13 23:01:00,14.2,6.5,30.25,West,263,9.0,10.0,71,0.00,,,0.04,0,Wunderground v.1.15,2013-01-14 05:01:00,
2013-01-13 23:05:00,14.2,6.5,30.25,NW,309,9.0,12.0,71,0.00,,,0.04,0,Wunderground v.1.15,2013-01-14 05:05:00,
2013-01-13 23:06:00,14.2,6.5,30.25,WNW,282,10.0,15.0,71,0.00,,,0.04,0,Wunderground v.1.15,2013-01-14 05:06:00,
2013-01-13 23:11:00,14.2,6.5,30.25,WNW,286,11.0,14.0,71,0.00,,,0.04,0,Wunderground v.1.15,2013-01-14 05:11:00,
2013-01-13 23:16:00,14.2,6.5,30.25,WNW,295,12.0,14.0,71,0.00,,,0.04,0,Wunderground v.1.15,2013-01-14 05:16:00,
2013-01-13 23:25:00,14.3,6.9,30.25,WNW,291,10.0,11.0,72,0.00,,,0.04,0,Wunderground v.1.15,2013-01-14 05:25:00,
2013-01-13 23:30:00,14.2,6.5,30.25,West,273,10.0,11.0,71,0.00,,,0.04,0,Wunderground v.1.15,2013-01-14 05:30:00,
2013-01-13 23:35:00,14.2,6.5,30.25,West,266,11.0,15.0,71,0.00,,,0.04,0,Wunderground v.1.15,2013-01-14 05:35:00,
2013-01-13 23:40:00,14.3,6.6,30.25,West,279,11.0,14.0,71,0.00,,,0.04,0,Wunderground v.1.15,2013-01-14 05:40:00,
2013-01-13 23:45:00,14.3,6.6,30.25,WNW,290,11.0,14.0,71,0.00,,,0.04,0,Wunderground v.1.15,2013-01-14 05:45:00,
2013-01-13 23:50:00,14.3,6.6,30.25,West,272,11.0,14.0,71,0.00,,,0.04,0,Wunderground v.1.15,2013-01-14 05:50:00,
2013-01-13 23:57:00,14.3,6.6,30.25,WNW,284,11.0,15.0,71,0.00,,,0.04,0,Wunderground v.1.15,2013-01-14 05:57:00,